»·PEaware :: N800DW MMSL-KLAS

N800DW :: MMSL-KLAS

FLIGHT INFORMATION

Flight Status: Arrived
Operator: Privately registered:
United States
More flights under this callsign
Pilot: Scott L. (17677)
Aircraft: CESSNA 510 CITATION MUSTANG
(C510)
More flights by this aircraft type
Origin: MMSL Cabo San Lucas Intl
Mexico
Destination: KLAS McCarran Intl
United States
More flights between these airports :: More routes between these airports
Route: XOSMA ASUTA TRM TNP KEPEC6
File this flight plan on PilotEdge
Remarks:
Altitude:
(Current/Filed)
40,000ft
Speed:
(Current/Filed)
400kts
Departed: 10-Feb-20 06:34 AM
Arrived: 10-Feb-20 09:18 AM
Distance/Time
Traveled:
834nm/2:44
Distance/Time
To Go:
Arrived

Flight Plot

Page will automatically refresh every two minutes.

Flight plan parsing failed; only flown route is shown


Map Options




Map Legend


Flown Route
Filed Route
Departure Airport
Arrival Airport
Navaid (VOR, NDB)
Fix

Horizontal Profiles

Position Reports

Time Latitude Longitude Heading Altitude Ground
Speed
10-Feb-20 06:24 22.946605 -109.936587 210 662ft 0kts
10-Feb-20 06:25 22.946605 -109.936587 210 662ft 0kts
10-Feb-20 06:26 22.946605 -109.936587 210 662ft 0kts
10-Feb-20 06:27 22.946605 -109.936587 210 662ft 0kts
10-Feb-20 06:28 22.946605 -109.936587 210 662ft 0kts
10-Feb-20 06:29 22.946605 -109.936587 210 662ft 0kts
10-Feb-20 06:30 22.946604 -109.936587 210 662ft 0kts
10-Feb-20 06:31 22.946556 -109.936065 70 660ft 8kts
10-Feb-20 06:32 22.944258 -109.930452 109 625ft 22kts
10-Feb-20 06:33 22.945585 -109.933196 302 641ft 81kts
10-Feb-20 06:34 22.963362 -109.978755 274 2167ft 232kts
10-Feb-20 06:35 22.968229 -110.055706 275 5258ft 265kts
10-Feb-20 06:36 22.988838 -110.130427 322 8547ft 270kts
10-Feb-20 06:37 23.049760 -110.093588 63 11850ft 298kts
10-Feb-20 06:38 23.093629 -110.018264 61 15150ft 294kts
10-Feb-20 06:39 23.149644 -109.994331 303 18421ft 218kts
10-Feb-20 06:40 23.196486 -110.033344 323 21265ft 233kts
10-Feb-20 06:41 23.262347 -110.061727 326 23029ft 272kts
10-Feb-20 06:42 23.335530 -110.093706 318 24759ft 284kts
10-Feb-20 06:43 23.406153 -110.136666 318 26468ft 296kts
10-Feb-20 06:44 23.479080 -110.180993 317 28171ft 300kts
10-Feb-20 06:45 23.552190 -110.225495 317 29857ft 299kts
10-Feb-20 06:46 23.624847 -110.269828 316 31537ft 296kts
10-Feb-20 06:47 23.696413 -110.313528 315 33208ft 290kts
10-Feb-20 06:48 23.766249 -110.356331 315 34869ft 283kts
10-Feb-20 06:49 23.833969 -110.397923 314 36505ft 274kts
10-Feb-20 06:50 23.899519 -110.438134 314 38138ft 262kts
10-Feb-20 06:51 23.961256 -110.475921 312 39749ft 244kts
10-Feb-20 06:52 24.022903 -110.514636 314 40063ft 274kts
10-Feb-20 06:53 24.093850 -110.558670 316 40057ft 310kts
10-Feb-20 06:54 24.172361 -110.606894 317 40047ft 335kts
10-Feb-20 06:55 24.255655 -110.658143 317 40062ft 352kts
10-Feb-20 06:56 24.342782 -110.711991 318 40065ft 367kts
10-Feb-20 06:57 24.432758 -110.767646 318 40061ft 376kts
10-Feb-20 06:58 24.525049 -110.824868 318 40062ft 381kts
10-Feb-20 06:59 24.618436 -110.882859 318 40058ft 383kts
10-Feb-20 07:00 24.711617 -110.940897 318 40055ft 384kts
10-Feb-20 07:01 24.805188 -110.999278 318 40057ft 384kts
10-Feb-20 07:02 24.899008 -111.057870 318 40023ft 385kts
10-Feb-20 07:03 24.992636 -111.116446 318 39979ft 385kts
10-Feb-20 07:04 25.086422 -111.175048 317 39972ft 384kts
10-Feb-20 07:05 25.177812 -111.232264 316 39951ft 353kts
10-Feb-20 07:06 25.258007 -111.282500 314 39954ft 309kts
10-Feb-20 07:07 25.329479 -111.327571 312 39955ft 280kts
10-Feb-20 07:08 25.395201 -111.368820 309 39972ft 260kts
10-Feb-20 07:09 25.456880 -111.408209 309 39985ft 252kts
10-Feb-20 07:10 25.518466 -111.447613 309 39981ft 255kts
10-Feb-20 07:11 25.580593 -111.487081 309 39985ft 256kts
10-Feb-20 07:12 25.642946 -111.526610 310 39978ft 257kts
10-Feb-20 07:13 25.705421 -111.566290 310 39979ft 258kts
10-Feb-20 07:14 25.768184 -111.606204 309 39978ft 259kts
10-Feb-20 07:15 25.831085 -111.646246 310 39980ft 259kts
10-Feb-20 07:16 25.894230 -111.686546 309 40003ft 264kts
10-Feb-20 07:17 25.958869 -111.727830 310 40005ft 268kts
10-Feb-20 07:18 26.024459 -111.769724 310 40000ft 272kts
10-Feb-20 07:19 26.090747 -111.812086 310 40001ft 275kts
10-Feb-20 07:20 26.157474 -111.854782 310 39989ft 275kts
10-Feb-20 07:21 26.224453 -111.897678 310 39992ft 274kts
10-Feb-20 07:22 26.290927 -111.940374 310 39989ft 274kts
10-Feb-20 07:23 26.357250 -111.983063 310 39990ft 273kts
10-Feb-20 07:24 26.423131 -112.025445 310 39993ft 273kts
10-Feb-20 07:25 26.489095 -112.068041 310 39993ft 273kts
10-Feb-20 07:26 26.555122 -112.110681 310 39986ft 273kts
10-Feb-20 07:27 26.621288 -112.153436 310 39988ft 273kts
10-Feb-20 07:28 26.686956 -112.196013 310 39989ft 272kts
10-Feb-20 07:30 26.752772 -112.238598 310 39986ft 272kts
10-Feb-20 07:31 26.818467 -112.281307 310 39987ft 272kts
10-Feb-20 07:32 26.884172 -112.324021 310 39988ft 272kts
10-Feb-20 07:33 26.949818 -112.366468 309 39989ft 272kts
10-Feb-20 07:34 27.015156 -112.408992 308 39986ft 271kts
10-Feb-20 07:35 27.080549 -112.451735 308 39984ft 270kts
10-Feb-20 07:36 27.145411 -112.494294 308 39970ft 267kts
10-Feb-20 07:37 27.209347 -112.536143 307 39975ft 264kts
10-Feb-20 07:38 27.272339 -112.577508 307 39960ft 262kts
10-Feb-20 07:39 27.335530 -112.618949 307 39948ft 261kts
10-Feb-20 07:40 27.398463 -112.660345 307 39964ft 260kts
10-Feb-20 07:41 27.461445 -112.701971 307 39962ft 264kts
10-Feb-20 07:42 27.525491 -112.744130 307 39962ft 268kts
10-Feb-20 07:43 27.590387 -112.786937 307 39960ft 270kts
10-Feb-20 07:44 27.655202 -112.829732 308 39962ft 271kts
10-Feb-20 07:45 27.720607 -112.873035 308 39965ft 271kts
10-Feb-20 07:46 27.785869 -112.916241 308 39957ft 273kts
10-Feb-20 07:47 27.851540 -112.959749 308 39958ft 273kts
10-Feb-20 07:48 27.916881 -113.003200 308 39958ft 273kts
10-Feb-20 07:49 27.982348 -113.046749 308 39959ft 272kts
10-Feb-20 07:50 28.047715 -113.090261 308 39955ft 272kts
10-Feb-20 07:50 28.102212 -113.126675 308 39956ft 272kts
10-Feb-20 07:52 28.177964 -113.177219 308 39944ft 269kts
10-Feb-20 07:52 28.231581 -113.213100 307 39970ft 266kts
10-Feb-20 07:54 28.305643 -113.262723 307 39991ft 264kts
10-Feb-20 07:55 28.368925 -113.305211 307 40000ft 263kts
10-Feb-20 07:55 28.421390 -113.340551 307 40000ft 263kts
10-Feb-20 07:57 28.494784 -113.389933 307 40000ft 263kts
10-Feb-20 07:57 28.547321 -113.425287 307 40002ft 262kts
10-Feb-20 07:58 28.610147 -113.467748 307 40000ft 262kts
10-Feb-20 07:59 28.675123 -113.512210 309 40011ft 291kts
10-Feb-20 08:00 28.749151 -113.562538 311 40006ft 326kts
10-Feb-20 08:01 28.830400 -113.617378 312 40002ft 350kts
10-Feb-20 08:02 28.916373 -113.675649 312 40028ft 366kts
10-Feb-20 08:03 29.005511 -113.736382 314 40024ft 378kts
10-Feb-20 08:04 29.099419 -113.796854 324 40026ft 401kts
10-Feb-20 08:05 29.203659 -113.848908 325 40007ft 412kts
10-Feb-20 08:06 29.309639 -113.901858 325 40009ft 417kts
10-Feb-20 08:07 29.416215 -113.955573 325 40011ft 419kts
10-Feb-20 08:08 29.523206 -114.009752 325 40008ft 422kts
10-Feb-20 08:09 29.630790 -114.064241 325 39968ft 424kts
10-Feb-20 08:10 29.739016 -114.119295 325 39889ft 425kts
10-Feb-20 08:11 29.846984 -114.174284 325 39877ft 425kts
10-Feb-20 08:12 29.955066 -114.229527 325 39871ft 424kts
10-Feb-20 08:13 30.063026 -114.284827 325 39873ft 424kts
10-Feb-20 08:14 30.171022 -114.340249 325 39859ft 423kts
10-Feb-20 08:15 30.278527 -114.395578 325 39863ft 423kts
10-Feb-20 08:16 30.385776 -114.450899 325 39863ft 422kts
10-Feb-20 08:17 30.493301 -114.506523 325 39864ft 422kts
10-Feb-20 08:18 30.600585 -114.562138 325 39866ft 422kts
10-Feb-20 08:19 30.707964 -114.617950 325 39867ft 423kts
10-Feb-20 08:20 30.815743 -114.674087 325 39883ft 424kts
10-Feb-20 08:21 30.923427 -114.730483 325 39881ft 425kts
10-Feb-20 08:22 31.031745 -114.787739 327 39880ft 430kts
10-Feb-20 08:23 31.141866 -114.845177 328 39867ft 434kts
10-Feb-20 08:24 31.252710 -114.903207 328 39869ft 435kts
10-Feb-20 08:25 31.362869 -114.961281 328 39869ft 435kts
10-Feb-20 08:26 31.472971 -115.019625 328 39872ft 434kts
10-Feb-20 08:27 31.582770 -115.077884 329 39870ft 432kts
10-Feb-20 08:28 31.692321 -115.136154 329 39872ft 431kts
10-Feb-20 08:29 31.801824 -115.194526 330 39871ft 430kts
10-Feb-20 08:30 31.911901 -115.253223 330 39873ft 429kts
10-Feb-20 08:31 32.021442 -115.311847 330 39870ft 428kts
10-Feb-20 08:32 32.130194 -115.370313 330 39861ft 428kts
10-Feb-20 08:33 32.238797 -115.428780 330 39859ft 427kts
10-Feb-20 08:34 32.347005 -115.487215 330 39862ft 427kts
10-Feb-20 08:35 32.456132 -115.546315 330 39870ft 427kts
10-Feb-20 08:36 32.565414 -115.605652 330 39876ft 427kts
10-Feb-20 08:37 32.674495 -115.664356 330 39891ft 428kts
10-Feb-20 08:38 32.785174 -115.721291 331 39893ft 429kts
10-Feb-20 08:39 32.896337 -115.778662 331 39896ft 430kts
10-Feb-20 08:40 33.006955 -115.836360 332 39892ft 431kts
10-Feb-20 08:41 33.117726 -115.894633 336 39889ft 432kts
10-Feb-20 08:42 33.227549 -115.950896 336 39901ft 427kts
10-Feb-20 08:43 33.336503 -116.007410 336 39908ft 426kts
10-Feb-20 08:44 33.444913 -116.064037 336 39909ft 426kts
10-Feb-20 08:45 33.553522 -116.120993 336 39909ft 426kts
10-Feb-20 08:46 33.664710 -116.129031 30 39926ft 420kts
10-Feb-20 08:47 33.763088 -116.052089 34 39906ft 422kts
10-Feb-20 08:48 33.861378 -115.972854 34 39420ft 432kts
10-Feb-20 08:49 33.962065 -115.891535 34 38233ft 439kts
10-Feb-20 08:50 34.063770 -115.809197 34 37047ft 439kts
10-Feb-20 08:51 34.158886 -115.717658 43 35842ft 438kts
10-Feb-20 08:52 34.248341 -115.616987 43 34623ft 438kts
10-Feb-20 08:53 34.341155 -115.521456 22 33372ft 442kts
10-Feb-20 08:54 34.457479 -115.472299 20 32176ft 443kts
10-Feb-20 08:55 34.573628 -115.421768 20 30982ft 443kts
10-Feb-20 08:56 34.689568 -115.371122 20 29364ft 435kts
10-Feb-20 08:57 34.803445 -115.339049 347 26906ft 426kts
10-Feb-20 08:58 34.916092 -115.381564 344 24113ft 421kts
10-Feb-20 08:59 35.023900 -115.423694 345 21918ft 395kts
10-Feb-20 09:00 35.125521 -115.463270 345 19531ft 360kts
10-Feb-20 09:01 35.210851 -115.496695 346 16796ft 331kts
10-Feb-20 09:02 35.297021 -115.530453 346 13903ft 321kts
10-Feb-20 09:03 35.376922 -115.561968 347 12986ft 276kts
10-Feb-20 09:04 35.449823 -115.590445 347 13007ft 302kts
10-Feb-20 09:05 35.536618 -115.624529 346 13016ft 318kts
10-Feb-20 09:06 35.613484 -115.616008 41 11557ft 300kts
10-Feb-20 09:07 35.679019 -115.550067 41 9272ft 307kts
10-Feb-20 09:08 35.743283 -115.483625 41 7995ft 283kts
10-Feb-20 09:09 35.801265 -115.423194 41 7850ft 273kts
10-Feb-20 09:10 35.860390 -115.360994 41 6993ft 260kts
10-Feb-20 09:11 35.913125 -115.305192 41 6778ft 249kts
10-Feb-20 09:12 35.960185 -115.254859 41 5379ft 213kts
10-Feb-20 09:13 35.997483 -115.218383 32 4367ft 138kts
10-Feb-20 09:14 36.030212 -115.196555 26 3556ft 129kts
10-Feb-20 09:15 36.060666 -115.178827 22 2736ft 117kts
10-Feb-20 09:16 36.087537 -115.163466 24 2115ft 61kts
10-Feb-20 09:17 36.087282 -115.165960 205 2115ft 22kts
10-Feb-20 09:18 36.083189 -115.169271 121 2115ft 0kts
10-Feb-20 09:19 36.083189 -115.169271 121 2115ft 0kts
10-Feb-20 09:20 36.083189 -115.169271 121 2115ft 0kts
10-Feb-20 09:21 36.083189 -115.169271 121 2115ft 0kts
10-Feb-20 09:22 36.083189 -115.169271 121 2115ft 0kts
10-Feb-20 09:23 36.083189 -115.169271 121 2115ft 0kts
10-Feb-20 09:24 36.083189 -115.169271 121 2115ft 0kts
10-Feb-20 09:25 36.083189 -115.169271 121 2115ft 0kts
10-Feb-20 09:26 36.083189 -115.169271 121 2115ft 0kts
10-Feb-20 09:27 36.083189 -115.169271 121 2115ft 0kts
10-Feb-20 09:28 36.083189 -115.169271 121 2115ft 0kts
10-Feb-20 09:29 36.083189 -115.169271 121 2115ft 0kts
10-Feb-20 09:30 36.083189 -115.169271 121 2115ft 0kts
10-Feb-20 09:31 36.083189 -115.169271 121 2115ft 0kts
10-Feb-20 09:32 36.083189 -115.169271 121 2115ft 0kts

Navigation Log

Ident Type
Flight plan parsing failed, navigation log unavailable